Time;durP1;ratioP1;P1;durP2;ratioP2;P2;SDS_P1;SDS_P2;PMS_P1;PMS_P2;Temp;Humidity;BMP_temperature;BMP_pressure;BME280_temperature;BME280_humidity;BME280_pressure;Samples;Min_cycle;Max_cycle;Signal;HPM_P1;HPM_P2
2022/01/29 00:05:01;;;;;;;1999.90;999.90;;;;;;;6.13;63.24;102271.66;15558199;28;20175;-60
2022/01/29 00:12:40;;;;;;;1999.90;999.90;;;;;;;5.98;63.17;102263.22;15577387;28;20038;-60
2022/01/29 00:20:13;;;;;;;1999.90;999.90;;;;;;;6.06;62.70;102249.72;15541692;28;20034;-60
2022/01/29 00:27:48;;;;;;;1999.90;999.90;;;;;;;5.84;64.09;102242.59;15573920;28;20137;-60
2022/01/29 00:35:22;;;;;;;1999.90;999.90;;;;;;;5.63;64.85;102231.31;15545908;28;20117;-59
2022/01/29 00:42:56;;;;;;;1999.90;999.90;;;;;;;6.04;63.60;102226.13;15552003;28;20456;-59
2022/01/29 00:50:28;;;;;;;1999.90;999.90;;;;;;;5.94;64.37;102226.03;15531910;28;20048;-61
2022/01/29 00:58:03;;;;;;;1999.90;999.90;;;;;;;6.10;63.50;102213.97;15579824;28;20070;-60
2022/01/29 01:05:36;;;;;;;1999.90;999.90;;;;;;;5.97;64.34;102189.50;15540611;28;20124;-61
2022/01/29 01:13:10;;;;;;;1999.90;999.90;;;;;;;5.91;64.35;102168.41;15584877;28;20041;-60
2022/01/29 01:20:44;;;;;;;1999.90;999.90;;;;;;;5.80;64.65;102150.84;15595183;28;20057;-60
2022/01/29 01:28:20;;;;;;;1999.90;999.90;;;;;;;5.85;65.21;102144.50;15578055;28;20064;-60
2022/01/29 01:35:59;;;;;;;1999.90;999.90;;;;;;;5.84;65.21;102126.22;15600347;28;20509;-60
2022/01/29 01:43:35;;;;;;;1999.90;999.90;;;;;;;5.84;64.54;102090.22;15572812;28;20136;-60
2022/01/29 01:51:10;;;;;;;1999.90;999.90;;;;;;;5.59;65.23;102088.91;15557425;28;20085;-60
2022/01/29 01:58:44;;;;;;;1999.90;999.90;;;;;;;5.48;66.06;102071.41;15609928;28;20128;-61
2022/01/29 02:06:19;;;;;;;1999.90;999.90;;;;;;;5.56;65.79;102042.41;15599862;28;20079;-61
2022/01/29 02:14:00;;;;;;;1999.90;999.90;;;;;;;5.91;65.51;102033.47;15566597;28;20044;-61
2022/01/29 02:21:40;;;;;;;1999.90;999.90;;;;;;;5.73;65.01;102000.66;15602533;28;20042;-61
2022/01/29 02:29:20;;;;;;;1999.90;999.90;;;;;;;5.66;65.77;101989.84;15549331;28;20054;-62
2022/01/29 02:36:58;;;;;;;1999.90;999.90;;;;;;;5.95;65.60;101972.81;15574342;28;20467;-60
2022/01/29 02:44:42;;;;;;;1999.90;999.90;;;;;;;5.58;66.88;101970.94;15562344;28;20123;-61
2022/01/29 02:52:21;;;;;;;1999.90;999.90;;;;;;;5.72;67.35;101961.03;15541632;28;20042;-61
2022/01/29 03:00:10;;;;;;;1999.90;999.90;;;;;;;5.48;68.68;101946.81;15557733;28;20488;-61
2022/01/29 03:07:48;;;;;;;1999.90;999.90;;;;;;;5.53;70.08;101932.19;15542864;28;20132;-61
2022/01/29 03:15:30;;;;;;;1999.90;999.90;;;;;;;5.37;70.52;101913.81;15566446;28;20041;-61
2022/01/29 03:23:05;;;;;;;1999.90;999.90;;;;;;;5.45;70.15;101907.78;15576217;28;20612;-61
2022/01/29 03:30:41;;;;;;;1999.90;999.90;;;;;;;5.37;70.92;101886.13;15584167;28;20124;-61
2022/01/29 03:38:19;;;;;;;1999.90;999.90;;;;;;;5.45;71.57;101869.84;15571058;28;20052;-61
2022/01/29 03:45:52;;;;;;;1999.90;999.90;;;;;;;5.42;72.45;101853.78;15600462;28;20364;-62
2022/01/29 03:53:28;;;;;;;1999.90;999.90;;;;;;;5.47;72.91;101837.19;15576823;28;20076;-62
2022/01/29 04:01:02;;;;;;;1999.90;999.90;;;;;;;5.46;73.87;101815.31;15577925;28;20055;-62
2022/01/29 04:08:41;;;;;;;1999.90;999.90;;;;;;;5.45;73.68;101805.34;15552051;28;20041;-62
2022/01/29 04:16:33;;;;;;;1999.90;999.90;;;;;;;5.48;74.79;101797.31;15521250;28;20050;-61
2022/01/29 04:24:08;;;;;;;1999.90;999.90;;;;;;;5.59;74.51;101781.56;15547711;28;20092;-62
2022/01/29 04:31:55;;;;;;;1999.90;999.90;;;;;;;5.34;75.47;101760.19;15553759;28;20478;-60
2022/01/29 04:39:30;;;;;;;1999.90;999.90;;;;;;;5.53;73.81;101745.84;15570126;28;20042;-60
2022/01/29 04:47:04;;;;;;;1999.90;999.90;;;;;;;5.65;74.07;101736.16;15556667;28;20042;-61
2022/01/29 04:54:38;;;;;;;1999.90;999.90;;;;;;;5.71;74.58;101712.06;15583170;28;20148;-62
2022/01/29 05:02:10;;;;;;;1999.90;999.90;;;;;;;5.61;75.39;101684.34;15575353;28;20049;-61
2022/01/29 05:09:44;;;;;;;1999.90;999.90;;;;;;;5.53;75.28;101668.31;15594392;28;20054;-62
2022/01/29 05:26:49;;;;;;;1999.90;999.90;;;;;;;5.62;75.71;101667.47;15598198;28;20364;-62
2022/01/29 05:33:12;;;;;;;1999.90;999.90;;;;;;;5.43;77.04;101625.69;15561933;28;20042;-61
2022/01/29 05:40:47;;;;;;;1999.90;999.90;;;;;;;5.66;76.49;101593.00;15586679;28;20111;-61
2022/01/29 05:48:20;;;;;;;1999.90;999.90;;;;;;;5.72;76.21;101578.00;15538180;28;20050;-60
2022/01/29 05:55:54;;;;;;;1999.90;999.90;;;;;;;5.70;76.77;101564.44;15503454;28;20039;-62
2022/01/29 06:03:28;;;;;;;1999.90;999.90;;;;;;;5.46;78.20;101550.38;15522152;28;20110;-61
2022/01/29 06:11:07;;;;;;;1999.90;999.90;;;;;;;5.68;78.05;101532.63;15525828;28;20033;-59
2022/01/29 06:18:40;;;;;;;1999.90;999.90;;;;;;;5.56;78.71;101530.16;15537248;28;20519;-58
2022/01/29 06:26:16;;;;;;;1999.90;999.90;;;;;;;5.62;78.83;101512.41;15531032;28;20092;-56
2022/01/29 06:33:51;;;;;;;1999.90;999.90;;;;;;;5.66;78.97;101507.97;15539491;28;20053;-58
2022/01/29 06:41:36;;;;;;;1999.90;999.90;;;;;;;5.57;80.50;101479.19;15554065;28;20404;-57
2022/01/29 06:49:15;;;;;;;1999.90;999.90;;;;;;;5.64;80.19;101474.22;15578661;28;20119;-58
2022/01/29 06:56:52;;;;;;;1999.90;999.90;;;;;;;5.82;79.87;101453.34;15605726;28;20081;-55
2022/01/29 07:04:26;;;;;;;1999.90;999.90;;;;;;;5.47;81.51;101463.44;15557205;28;20041;-58
2022/01/29 07:12:09;;;;;;;1999.90;999.90;;;;;;;5.79;81.40;101427.06;15548198;28;20492;-54
2022/01/29 07:19:49;;;;;;;1999.90;999.90;;;;;;;5.58;82.32;101419.94;15533695;28;20129;-58
2022/01/29 07:27:32;;;;;;;1999.90;999.90;;;;;;;6.00;80.98;101405.66;15551781;28;20129;-60
2022/01/29 07:35:11;;;;;;;1999.90;999.90;;;;;;;5.55;82.19;101389.22;15533204;28;20050;-56
2022/01/29 07:43:04;;;;;;;1999.90;999.90;;;;;;;5.75;82.05;101367.81;15525204;28;20128;-53
2022/01/29 07:50:49;;;;;;;1999.90;999.90;;;;;;;5.56;82.66;101341.06;15548952;28;20458;-57
2022/01/29 07:58:31;;;;;;;1999.90;999.90;;;;;;;5.95;82.58;101344.75;15547115;28;20044;-55
2022/01/29 08:06:06;;;;;;;1999.90;999.90;;;;;;;5.91;83.00;101328.97;15515317;28;20050;-55
2022/01/29 08:13:46;;;;;;;1999.90;999.90;;;;;;;5.99;82.75;101308.97;15530167;28;20045;-57
2022/01/29 08:21:38;;;;;;;1999.90;999.90;;;;;;;6.02;83.26;101297.31;15547891;28;20579;-57
2022/01/29 08:29:31;;;;;;;1999.90;999.90;;;;;;;6.18;83.20;101292.50;15558373;28;20065;-58
2022/01/29 08:37:08;;;;;;;1999.90;999.90;;;;;;;6.35;82.94;101273.47;15561238;28;20475;-61
2022/01/29 08:44:45;;;;;;;1999.90;999.90;;;;;;;6.63;82.21;101280.97;15560925;28;20046;-53
2022/01/29 08:52:37;;;;;;;1999.90;999.90;;;;;;;6.69;82.67;101265.13;15559999;28;20554;-56
2022/01/29 09:00:24;;;;;;;1999.90;999.90;;;;;;;6.45;83.47;101237.34;15559681;28;20524;-57
2022/01/29 09:08:18;;;;;;;1999.90;999.90;;;;;;;6.86;82.64;101229.41;15558974;28;20075;-56
2022/01/29 09:16:05;;;;;;;1999.90;999.90;;;;;;;6.67;83.67;101211.91;15554526;28;20912;-57
2022/01/29 09:23:42;;;;;;;1999.90;999.90;;;;;;;6.77;83.91;101191.50;15572639;28;20108;-58
2022/01/29 09:31:34;;;;;;;1999.90;999.90;;;;;;;6.92;83.92;101178.28;15576841;28;20069;-59
2022/01/29 09:39:26;;;;;;;1999.90;999.90;;;;;;;7.02;83.74;101176.50;15567505;28;20076;-58
2022/01/29 09:47:21;;;;;;;1999.90;999.90;;;;;;;7.21;83.32;101175.41;15579860;28;20305;-59
2022/01/29 09:55:11;;;;;;;1999.90;999.90;;;;;;;7.48;83.58;101151.66;15545526;28;20141;-53
2022/01/29 10:10:59;;;;;;;1999.90;999.90;;;;;;;7.55;84.10;101123.53;15774918;27;20357;-56
2022/01/29 10:18:47;;;;;;;1999.90;999.90;;;;;;;7.65;84.52;101109.47;15725521;28;20071;-55
2022/01/29 10:26:30;;;;;;;1999.90;999.90;;;;;;;7.93;84.47;101096.47;15717319;28;20450;-55
2022/01/29 10:34:22;;;;;;;1999.90;999.90;;;;;;;7.96;85.06;101084.75;15716772;28;20055;-54
2022/01/29 10:42:13;;;;;;;1999.90;999.90;;;;;;;8.12;84.39;101083.31;15723663;28;20367;-51
2022/01/29 10:49:53;;;;;;;1999.90;999.90;;;;;;;8.38;83.85;101067.81;15721447;28;20033;-58
2022/01/29 10:57:36;;;;;;;1999.90;999.90;;;;;;;8.11;85.13;101054.69;15721779;28;20367;-56
2022/01/29 11:05:14;;;;;;;1999.90;999.90;;;;;;;8.56;83.66;101020.72;15719698;28;20048;-57
2022/01/29 11:12:50;;;;;;;1999.90;999.90;;;;;;;8.50;84.67;101024.72;15736473;28;20063;-55
2022/01/29 11:20:24;;;;;;;1999.90;999.90;;;;;;;8.52;84.88;101001.03;15671790;28;20045;-58
2022/01/29 11:28:16;;;;;;;1999.90;999.90;;;;;;;8.77;83.80;100977.38;15659210;28;20045;-59
2022/01/29 11:35:56;;;;;;;1999.90;999.90;;;;;;;9.03;82.02;100983.13;15616043;28;20053;-57
2022/01/29 11:43:31;;;;;;;1999.90;999.90;;;;;;;9.04;82.40;100965.28;15674350;28;20087;-57
2022/01/29 11:51:09;;;;;;;1999.90;999.90;;;;;;;9.05;82.00;100932.72;15678245;28;20103;-55
2022/01/29 11:59:27;;;;;;;1999.90;999.90;;;;;;;9.39;80.74;100913.44;15631186;28;20418;-52
2022/01/29 12:07:25;;;;;;;1999.90;999.90;;;;;;;9.23;81.15;100907.44;15617677;28;20568;-62
2022/01/29 12:15:39;;;;;;;1999.90;999.90;;;;;;;9.33;80.85;100875.72;15674080;22;20099;-64
2022/01/29 12:23:30;;;;;;;1999.90;999.90;;;;;;;9.35;80.95;100850.31;15681647;28;20045;-64
2022/01/29 12:31:20;;;;;;;1999.90;999.90;;;;;;;9.64;80.21;100838.63;15679682;28;20549;-61
2022/01/29 12:39:06;;;;;;;1999.90;999.90;;;;;;;9.69;79.64;100828.16;15682856;28;20116;-64
2022/01/29 12:46:48;;;;;;;1999.90;999.90;;;;;;;9.48;80.11;100821.53;15665366;28;20044;-65
2022/01/29 12:54:29;;;;;;;1999.90;999.90;;;;;;;9.60;79.07;100777.19;15686301;28;20098;-64
2022/01/29 13:02:05;;;;;;;1999.90;999.90;;;;;;;9.80;78.69;100764.59;15686795;28;20080;-64
2022/01/29 13:09:55;;;;;;;1999.90;999.90;;;;;;;10.14;77.08;100752.59;15685221;28;20044;-67
2022/01/29 13:17:39;;;;;;;1999.90;999.90;;;;;;;10.31;76.91;100738.66;15687612;28;20041;-66
2022/01/29 13:25:14;;;;;;;1999.90;999.90;;;;;;;10.46;75.87;100737.34;15662168;28;20095;-66
2022/01/29 13:32:49;;;;;;;1999.90;999.90;;;;;;;10.49;74.82;100747.81;15656649;28;20049;-67
2022/01/29 13:40:42;;;;;;;1999.90;999.90;;;;;;;10.88;73.53;100751.47;15682314;28;20044;-66
2022/01/29 13:48:25;;;;;;;1999.90;999.90;;;;;;;10.66;73.91;100739.41;15694272;28;20045;-67
2022/01/29 13:56:04;;;;;;;1999.90;999.90;;;;;;;10.82;74.24;100733.28;15621571;28;20406;-66
2022/01/29 14:03:50;;;;;;;1999.90;999.90;;;;;;;10.87;73.58;100708.78;15644467;28;20045;-69
2022/01/29 14:11:24;;;;;;;1999.90;999.90;;;;;;;10.58;74.86;100700.38;15628714;28;20074;-66
2022/01/29 14:19:15;;;;;;;1999.90;999.90;;;;;;;10.90;73.32;100685.78;15603068;28;20056;-66
2022/01/29 14:26:55;;;;;;;1999.90;999.90;;;;;;;10.92;73.37;100651.94;15620532;28;20049;-65
2022/01/29 14:34:33;;;;;;;1999.90;999.90;;;;;;;10.75;74.76;100636.13;15673794;28;20406;-65
2022/01/29 14:42:24;;;;;;;1999.90;999.90;;;;;;;10.55;75.88;100625.72;15655829;28;20374;-66
2022/01/29 14:50:02;;;;;;;1999.90;999.90;;;;;;;10.73;76.82;100629.22;15675404;28;20452;-66
2022/01/29 14:57:37;;;;;;;1999.90;999.90;;;;;;;10.49;78.02;100596.34;15623224;28;20087;-65
2022/01/29 15:05:13;;;;;;;1999.90;999.90;;;;;;;10.68;77.70;100563.25;15644279;28;20084;-66
2022/01/29 15:12:50;;;;;;;1999.90;999.90;;;;;;;10.67;75.89;100540.13;15752459;22;20069;-67
2022/01/29 15:20:25;;;;;;;1999.90;999.90;;;;;;;10.79;74.95;100541.34;15669530;28;20563;-67
2022/01/29 15:27:59;;;;;;;1999.90;999.90;;;;;;;11.12;73.31;100530.28;15641347;28;20045;-67
2022/01/29 15:35:36;;;;;;;1999.90;999.90;;;;;;;11.03;73.29;100516.38;15622600;28;20045;-66
2022/01/29 15:43:11;;;;;;;1999.90;999.90;;;;;;;11.02;73.53;100498.00;15614911;28;20064;-67
2022/01/29 15:50:49;;;;;;;1999.90;999.90;;;;;;;11.14;73.84;100475.69;15606634;28;20053;-67
2022/01/29 15:58:24;;;;;;;1999.90;999.90;;;;;;;11.10;73.96;100457.19;15620280;28;20273;-66
2022/01/29 16:05:59;;;;;;;1999.90;999.90;;;;;;;10.98;74.27;100436.44;15625677;28;20045;-64
2022/01/29 16:13:35;;;;;;;1999.90;999.90;;;;;;;11.03;74.32;100415.84;15618412;28;20494;-67
2022/01/29 16:21:12;;;;;;;1999.90;999.90;;;;;;;11.25;73.85;100437.00;15615907;28;20072;-66
2022/01/29 16:28:46;;;;;;;1999.90;999.90;;;;;;;10.96;76.22;100408.06;15625059;28;20132;-67
2022/01/29 16:36:45;;;;;;;1999.90;999.90;;;;;;;10.77;78.48;100421.69;15650442;28;20433;-67
2022/01/29 16:44:30;;;;;;;1999.90;999.90;;;;;;;10.67;80.29;100400.59;15645014;28;20088;-67
2022/01/29 16:52:06;;;;;;;1999.90;999.90;;;;;;;10.61;81.92;100384.41;15629342;28;20057;-67
2022/01/29 16:59:57;;;;;;;1999.90;999.90;;;;;;;10.75;82.09;100382.16;15611064;28;20049;-67
2022/01/29 17:07:38;;;;;;;1999.90;999.90;;;;;;;10.47;83.42;100355.97;15606240;28;20227;-67
2022/01/29 17:15:20;;;;;;;1999.90;999.90;;;;;;;10.61;83.08;100350.91;15605719;28;20486;-64
2022/01/29 17:23:01;;;;;;;1999.90;999.90;;;;;;;10.45;85.28;100361.09;15611063;28;20133;-63
2022/01/29 17:30:44;;;;;;;1999.90;999.90;;;;;;;10.37;85.92;100335.69;15590922;28;20081;-68
2022/01/29 17:38:19;;;;;;;1999.90;999.90;;;;;;;10.35;85.99;100332.44;15605372;28;20049;-70
2022/01/29 17:45:51;;;;;;;1999.90;999.90;;;;;;;10.46;85.22;100309.72;15614703;28;20049;-65
2022/01/29 17:53:25;;;;;;;1999.90;999.90;;;;;;;10.41;85.63;100300.38;15616120;28;20041;-66
2022/01/29 18:00:58;;;;;;;1999.90;999.90;;;;;;;10.50;84.79;100283.56;15584520;28;20690;-65
2022/01/29 18:08:31;;;;;;;1999.90;999.90;;;;;;;10.62;83.91;100261.28;15605727;28;20498;-68
2022/01/29 18:16:03;;;;;;;;;;;;;;;10.48;83.89;100251.59;15613557;28;20120;-66
2022/01/29 18:23:37;;;;;;;1999.90;999.90;;;;;;;10.61;82.61;100236.53;15614632;28;20278;-66
2022/01/29 18:31:10;;;;;;;1999.90;999.90;;;;;;;10.77;82.07;100234.72;15618194;28;20045;-64
2022/01/29 18:38:43;;;;;;;1999.90;999.90;;;;;;;10.78;81.55;100211.22;15628126;28;20113;-68
2022/01/29 18:46:16;;;;;;;1999.90;999.90;;;;;;;11.03;80.66;100197.28;15610321;28;20041;-65
2022/01/29 18:53:49;;;;;;;1999.90;999.90;;;;;;;10.92;80.99;100208.91;15630488;28;20069;-64
2022/01/29 19:01:22;;;;;;;1999.90;999.90;;;;;;;11.03;80.49;100209.25;15622554;28;20053;-63
2022/01/29 19:08:55;;;;;;;1999.90;999.90;;;;;;;11.08;79.87;100216.59;15600242;28;20092;-69
2022/01/29 19:16:28;;;;;;;1999.90;999.90;;;;;;;10.96;78.52;100179.16;15613771;28;20103;-70
2022/01/29 19:24:01;;;;;;;1999.90;999.90;;;;;;;11.09;75.50;100210.66;15627113;28;20042;-70
2022/01/29 19:31:35;;;;;;;1999.90;999.90;;;;;;;11.06;76.50;100227.31;15596937;28;20053;-68
2022/01/29 19:39:08;;;;;;;1999.90;999.90;;;;;;;10.47;74.76;100259.16;15611258;28;20071;-68
2022/01/29 19:46:40;;;;;;;1999.90;999.90;;;;;;;10.13;72.36;100288.16;15613158;28;20052;-68
2022/01/29 19:54:14;;;;;;;1999.90;999.90;;;;;;;10.31;69.21;100280.47;15623266;28;20092;-67
2022/01/29 20:01:46;;;;;;;1999.90;999.90;;;;;;;10.20;66.92;100265.28;15605392;28;20449;-68
2022/01/29 20:09:20;;;;;;;1999.90;999.90;;;;;;;10.04;68.53;100178.69;15605038;28;20050;-67
2022/01/29 20:16:53;;;;;;;1999.90;999.90;;;;;;;10.00;65.94;100266.91;15590894;28;20105;-68
2022/01/29 20:24:26;;;;;;;1999.90;999.90;;;;;;;9.97;65.65;100299.06;15609106;28;20097;-62
2022/01/29 20:31:58;;;;;;;1999.90;999.90;;;;;;;9.94;65.80;100274.69;15616503;28;20076;-64
2022/01/29 20:39:32;;;;;;;1999.90;999.90;;;;;;;10.27;65.73;100293.47;15617242;28;20049;-67
2022/01/29 20:47:04;;;;;;;1999.90;999.90;;;;;;;10.00;63.33;100351.34;15626295;28;20449;-67
2022/01/29 20:54:38;;;;;;;1999.90;999.90;;;;;;;9.98;59.01;100311.84;15610893;28;20086;-66
2022/01/29 21:02:10;;;;;;;;;;;;;;;10.12;57.26;100345.88;15618017;28;20041;-66
2022/01/29 21:09:43;;;;;;;1999.90;999.90;;;;;;;9.83;57.54;100363.44;15610626;28;19975;-65
2022/01/29 21:17:16;;;;;;;1999.90;999.90;;;;;;;9.57;58.16;100371.09;15616420;28;20045;-65
2022/01/29 21:25:08;;;;;;;1999.90;999.90;;;;;;;9.41;58.55;100347.75;15662097;22;20056;-61
2022/01/29 21:33:33;;;;;;;1999.90;999.90;;;;;;;9.63;57.56;100386.50;15747073;28;20076;-61
2022/01/29 21:41:12;;;;;;;1999.90;999.90;;;;;;;9.74;57.77;100381.34;15669144;28;20037;-60
2022/01/29 21:48:44;;;;;;;1999.90;999.90;;;;;;;9.54;57.33;100405.19;15671847;28;20047;-60
2022/01/29 21:56:18;;;;;;;1999.90;999.90;;;;;;;9.57;57.63;100418.44;15658777;28;20128;-61
2022/01/29 22:03:50;;;;;;;;;;;;;;;9.58;57.45;100402.56;15670664;28;20041;-62
2022/01/29 22:11:26;;;;;;;1999.90;999.90;;;;;;;8.74;67.39;100480.00;15665025;28;19921;-58
2022/01/29 22:18:58;;;;;;;1999.90;999.90;;;;;;;8.14;68.82;100427.88;15668117;28;20076;-61
2022/01/29 22:26:32;;;;;;;1999.90;999.90;;;;;;;8.14;67.94;100458.47;15670812;28;20141;-59
2022/01/29 22:34:04;;;;;;;1999.90;999.90;;;;;;;8.11;65.89;100454.34;15689370;28;20052;-60
2022/01/29 22:41:39;;;;;;;1999.90;999.90;;;;;;;7.97;62.42;100459.22;15675670;28;20131;-55
2022/01/29 22:49:11;;;;;;;1999.90;999.90;;;;;;;8.09;61.19;100459.41;15666905;28;20048;-58
2022/01/29 22:56:44;;;;;;;1999.90;999.90;;;;;;;8.27;60.24;100479.72;15658317;28;20548;-57
2022/01/29 23:04:17;;;;;;;1999.90;999.90;;;;;;;8.29;60.44;100480.22;15660272;28;20137;-57
2022/01/29 23:11:53;;;;;;;1999.90;999.90;;;;;;;7.96;60.65;100440.91;15655129;28;20063;-58
2022/01/29 23:19:29;;;;;;;1999.90;999.90;;;;;;;7.95;59.73;100469.00;15680482;28;20128;-56
2022/01/29 23:27:03;;;;;;;1999.90;999.90;;;;;;;7.97;59.69;100486.19;15678128;28;20033;-55
2022/01/29 23:34:38;;;;;;;1999.90;999.90;;;;;;;8.00;58.71;100488.31;15674424;28;20055;-58
2022/01/29 23:42:30;;;;;;;1999.90;999.90;;;;;;;7.95;59.30;100474.56;15672720;28;20049;-55
2022/01/29 23:50:04;;;;;;;1999.90;999.90;;;;;;;8.02;59.65;100478.53;15675672;28;20045;-58
2022/01/29 23:57:38;;;;;;;1999.90;999.90;;;;;;;8.03;59.66;100462.69;15674163;28;20051;-58
